Airfield :
LOGIN :

Register | Disclaimer

   EN    FR    IT 

 










Legend :    VFR   Marginal VFR   IFR   Intensive IFR   Very Intensive IFR
Visi :
Ceiling :
>= 8 km
>= 3000ft
5 to 8 km
1000 to 3000 ft
1500m to 5 km
500 to 1000 ft
800 to 1500m
200 to 500 ft
< 800m
< 200 ft
Symbols :   Thunderstorms  Fog  Heavy snow  Heavy precipitations  Wind > 20 kt
SIGMETs :     Misc.  Thunderstorms  Icing  Turbulence  Mountain Waves  Volcanic Ashes






- Airport Elevation : 1079 ft


ETIK - Illesheim Air Base

CURRENT METAR :
  • 241155Z 26009KT 9999 SCT037 09/01 A2965 RMK AO2A SLP049 60000 T00880010 10088 20001 52011 $

EXPIRED METARs :
  • 241055Z AUTO 25014G20KT 9999 FEW029 08/01 A2964 RMK AO2 SLP046 T00770011
  • 240955Z AUTO 22013G19KT 9999 CLR 06/00 A2963 RMK AO2 RAE02DZB02E07 SLP043 P0000 T00570003 $
  • 240907Z AUTO 19008KT 9999 SCT020 04/01 A2961 RMK AO2 RAE02DZB02E07 SLP036 $
  • 240855Z AUTO 21009KT 9999 -RA BKN021 03/00 A2962 RMK AO2 DZB28E33RAB33 SLP040 P0000 60000 T00300001 52027 $
  • 240843Z AUTO 21011KT 9999 -RA BKN017 04/01 A2962 RMK AO2 DZB28E33RAB33 CIG 017V085 SLP039 $
  • 240828Z AUTO 20005KT 9999 -DZ SCT085 03/M00 A2962 RMK AO2 DZB28 SLP040 $
  • 240755Z AUTO 08004KT 9999 SCT090 BKN100 04/00 A2960 RMK AO2 SLP033 T00360001 $

TAF TAF ETIK
Valid from the 24 at 11:00 until the 25 at 17:00 UTC


241100Z 2411/2517 22012G18KT 9999 SCT030 QNH2963INS
BECMG 2415/2416 VRB06KT 9999 SCT040 QNH2967INS
BECMG 2508/2509 21010G15KT 9999 SCT040 QNH2960INS TX10/2415Z TN01/2506Z LAST NO AMDS AFT 2416 NEXT 2607



MET'MAP, your aeronautical weather chart ! - Copyright ORBIFLY December 2007 - Disclaimer

ORBIFLY MET'MAP TEAM :

Programming & Development : Alexandra Zaïnal
Original concept : Baudouin d'Aumeries
Technical & hardware support : Manuel Goepfert
Assistance : Marc-Olivier Méhu




SOURCES & CREDITS :

   NOAA